sensor_id;sensor_type;location;lat;lon;timestamp;pressure;altitude;pressure_sealevel;temperature;humidity
56400;BME280;42298;53.638;9.876;2023-04-06T00:01:50;101798.81;;;4.37;59.73
56400;BME280;42298;53.638;9.876;2023-04-06T00:04:17;101795.53;;;4.35;59.58
56400;BME280;42298;53.638;9.876;2023-04-06T00:06:43;101798.75;;;4.32;59.96
56400;BME280;42298;53.638;9.876;2023-04-06T00:09:08;101810.44;;;4.44;60.75
56400;BME280;42298;53.638;9.876;2023-04-06T00:11:34;101803.00;;;4.40;59.99
56400;BME280;42298;53.638;9.876;2023-04-06T00:13:59;101790.47;;;4.27;59.79
56400;BME280;42298;53.638;9.876;2023-04-06T00:16:25;101783.94;;;4.28;60.22
56400;BME280;42298;53.638;9.876;2023-04-06T00:18:51;101797.72;;;4.50;60.38
56400;BME280;42298;53.638;9.876;2023-04-06T00:21:16;101811.53;;;4.60;60.26
56400;BME280;42298;53.638;9.876;2023-04-06T00:23:43;101772.09;;;4.51;59.75
56400;BME280;42298;53.638;9.876;2023-04-06T00:26:09;101786.00;;;4.66;60.11
56400;BME280;42298;53.638;9.876;2023-04-06T00:28:36;101777.50;;;4.62;59.97
56400;BME280;42298;53.638;9.876;2023-04-06T00:31:03;101768.13;;;4.58;58.96
56400;BME280;42298;53.638;9.876;2023-04-06T00:33:29;101793.28;;;4.60;59.39
56400;BME280;42298;53.638;9.876;2023-04-06T00:35:54;101793.34;;;4.49;58.93
56400;BME280;42298;53.638;9.876;2023-04-06T00:38:20;101754.09;;;4.22;60.28
56400;BME280;42298;53.638;9.876;2023-04-06T00:43:32;101786.63;;;4.40;59.36
56400;BME280;42298;53.638;9.876;2023-04-06T00:45:58;101783.69;;;4.30;59.56
56400;BME280;42298;53.638;9.876;2023-04-06T00:48:24;101766.69;;;4.11;59.84
56400;BME280;42298;53.638;9.876;2023-04-06T00:50:51;101776.97;;;4.21;59.92
56400;BME280;42298;53.638;9.876;2023-04-06T00:53:16;101776.16;;;4.20;60.90
56400;BME280;42298;53.638;9.876;2023-04-06T00:55:42;101785.94;;;4.33;61.70
56400;BME280;42298;53.638;9.876;2023-04-06T00:58:08;101757.63;;;4.22;61.62
56400;BME280;42298;53.638;9.876;2023-04-06T01:00:33;101780.81;;;4.36;61.45
56400;BME280;42298;53.638;9.876;2023-04-06T01:02:59;101774.53;;;4.36;61.61
56400;BME280;42298;53.638;9.876;2023-04-06T01:05:24;101752.53;;;4.26;61.49
56400;BME280;42298;53.638;9.876;2023-04-06T01:07:50;101764.34;;;4.31;61.55
56400;BME280;42298;53.638;9.876;2023-04-06T01:10:25;101758.41;;;4.34;60.64
56400;BME280;42298;53.638;9.876;2023-04-06T01:12:51;101724.66;;;4.07;60.26
56400;BME280;42298;53.638;9.876;2023-04-06T01:15:17;101760.47;;;4.27;60.56
56400;BME280;42298;53.638;9.876;2023-04-06T01:17:44;101740.53;;;4.10;59.83
56400;BME280;42298;53.638;9.876;2023-04-06T01:20:11;101761.56;;;4.15;59.65
56400;BME280;42298;53.638;9.876;2023-04-06T01:22:37;101726.59;;;3.95;59.53
56400;BME280;42298;53.638;9.876;2023-04-06T01:25:04;101755.13;;;4.04;59.92
56400;BME280;42298;53.638;9.876;2023-04-06T01:27:31;101742.31;;;4.05;60.06
56400;BME280;42298;53.638;9.876;2023-04-06T01:29:57;101733.22;;;3.99;60.07
56400;BME280;42298;53.638;9.876;2023-04-06T01:32:23;101747.25;;;4.08;59.94
56400;BME280;42298;53.638;9.876;2023-04-06T01:34:50;101721.41;;;3.82;59.73
56400;BME280;42298;53.638;9.876;2023-04-06T01:37:15;101748.75;;;3.87;59.82
56400;BME280;42298;53.638;9.876;2023-04-06T01:39:42;101753.03;;;3.83;59.92
56400;BME280;42298;53.638;9.876;2023-04-06T01:42:08;101735.19;;;3.64;61.62
56400;BME280;42298;53.638;9.876;2023-04-06T01:44:33;101727.13;;;3.69;61.43
56400;BME280;42298;53.638;9.876;2023-04-06T01:47:00;101752.00;;;3.72;59.83
56400;BME280;42298;53.638;9.876;2023-04-06T01:49:25;101743.72;;;3.67;61.04
56400;BME280;42298;53.638;9.876;2023-04-06T01:51:50;101732.09;;;3.72;61.21
56400;BME280;42298;53.638;9.876;2023-04-06T01:54:16;101724.28;;;3.64;60.57
56400;BME280;42298;53.638;9.876;2023-04-06T01:56:42;101742.41;;;3.70;59.51
56400;BME280;42298;53.638;9.876;2023-04-06T01:59:07;101746.09;;;3.52;60.11
56400;BME280;42298;53.638;9.876;2023-04-06T02:01:33;101715.47;;;3.34;61.45
56400;BME280;42298;53.638;9.876;2023-04-06T02:04:00;101731.78;;;3.57;61.67
56400;BME280;42298;53.638;9.876;2023-04-06T02:06:26;101740.28;;;3.72;61.94
56400;BME280;42298;53.638;9.876;2023-04-06T02:08:51;101716.34;;;3.62;62.29
56400;BME280;42298;53.638;9.876;2023-04-06T02:11:17;101736.09;;;3.81;62.42
56400;BME280;42298;53.638;9.876;2023-04-06T02:13:42;101737.19;;;3.80;61.11
56400;BME280;42298;53.638;9.876;2023-04-06T02:16:07;101721.56;;;3.75;60.86
56400;BME280;42298;53.638;9.876;2023-04-06T02:18:34;101722.53;;;3.69;60.66
56400;BME280;42298;53.638;9.876;2023-04-06T02:21:00;101713.19;;;3.54;59.34
56400;BME280;42298;53.638;9.876;2023-04-06T02:23:25;101730.13;;;3.56;59.24
56400;BME280;42298;53.638;9.876;2023-04-06T02:25:51;101707.06;;;3.35;59.63
56400;BME280;42298;53.638;9.876;2023-04-06T02:28:17;101725.53;;;3.45;59.05
56400;BME280;42298;53.638;9.876;2023-04-06T02:30:45;101718.53;;;3.37;59.53
56400;BME280;42298;53.638;9.876;2023-04-06T02:33:11;101723.53;;;3.29;59.08
56400;BME280;42298;53.638;9.876;2023-04-06T02:35:37;101724.00;;;3.26;59.86
56400;BME280;42298;53.638;9.876;2023-04-06T02:38:02;101718.56;;;3.26;59.89
56400;BME280;42298;53.638;9.876;2023-04-06T02:40:27;101714.88;;;3.20;59.74
56400;BME280;42298;53.638;9.876;2023-04-06T02:42:54;101711.22;;;3.15;60.05
56400;BME280;42298;53.638;9.876;2023-04-06T02:45:19;101712.88;;;3.16;60.13
56400;BME280;42298;53.638;9.876;2023-04-06T02:47:45;101713.00;;;3.09;59.66
56400;BME280;42298;53.638;9.876;2023-04-06T02:50:11;101717.84;;;3.07;61.63
56400;BME280;42298;53.638;9.876;2023-04-06T02:52:36;101722.09;;;3.15;62.03
56400;BME280;42298;53.638;9.876;2023-04-06T02:55:01;101703.44;;;3.07;62.64
56400;BME280;42298;53.638;9.876;2023-04-06T02:57:28;101698.72;;;3.02;61.54
56400;BME280;42298;53.638;9.876;2023-04-06T02:59:55;101716.66;;;3.15;62.97
56400;BME280;42298;53.638;9.876;2023-04-06T03:02:21;101691.94;;;3.05;63.51
56400;BME280;42298;53.638;9.876;2023-04-06T03:04:47;101698.69;;;3.14;63.25
56400;BME280;42298;53.638;9.876;2023-04-06T03:07:14;101702.59;;;3.18;63.63
56400;BME280;42298;53.638;9.876;2023-04-06T03:09:39;101715.47;;;3.34;63.58
56400;BME280;42298;53.638;9.876;2023-04-06T03:12:05;101707.19;;;3.29;62.59
56400;BME280;42298;53.638;9.876;2023-04-06T03:14:31;101699.38;;;3.21;62.93
56400;BME280;42298;53.638;9.876;2023-04-06T03:16:56;101711.81;;;3.28;63.12
56400;BME280;42298;53.638;9.876;2023-04-06T03:19:24;101697.59;;;3.26;63.15
56400;BME280;42298;53.638;9.876;2023-04-06T03:21:49;101692.78;;;3.17;62.76
56400;BME280;42298;53.638;9.876;2023-04-06T03:24:15;101710.28;;;3.21;60.67
56400;BME280;42298;53.638;9.876;2023-04-06T03:26:41;101722.81;;;3.22;60.80
56400;BME280;42298;53.638;9.876;2023-04-06T03:29:06;101726.72;;;3.14;60.60
56400;BME280;42298;53.638;9.876;2023-04-06T03:31:31;101726.72;;;3.03;62.00
56400;BME280;42298;53.638;9.876;2023-04-06T03:33:57;101701.16;;;2.92;63.31
56400;BME280;42298;53.638;9.876;2023-04-06T03:36:22;101717.03;;;3.07;64.13
56400;BME280;42298;53.638;9.876;2023-04-06T03:38:50;101722.34;;;3.02;64.45
56400;BME280;42298;53.638;9.876;2023-04-06T03:41:15;101736.66;;;3.09;64.89
56400;BME280;42298;53.638;9.876;2023-04-06T03:43:41;101735.59;;;3.10;64.89
56400;BME280;42298;53.638;9.876;2023-04-06T03:46:08;101710.28;;;2.98;64.96
56400;BME280;42298;53.638;9.876;2023-04-06T03:48:35;101733.34;;;3.18;64.59
56400;BME280;42298;53.638;9.876;2023-04-06T03:51:01;101730.28;;;3.15;64.68
56400;BME280;42298;53.638;9.876;2023-04-06T03:53:26;101725.53;;;3.10;64.87
56400;BME280;42298;53.638;9.876;2023-04-06T03:55:52;101724.81;;;3.15;64.39
56400;BME280;42298;53.638;9.876;2023-04-06T03:58:18;101719.03;;;3.11;64.38
56400;BME280;42298;53.638;9.876;2023-04-06T04:00:43;101727.78;;;3.13;64.55
56400;BME280;42298;53.638;9.876;2023-04-06T04:03:09;101728.88;;;3.12;64.35
56400;BME280;42298;53.638;9.876;2023-04-06T04:05:34;101727.19;;;3.11;63.39
56400;BME280;42298;53.638;9.876;2023-04-06T04:08:00;101728.97;;;3.17;63.80
56400;BME280;42298;53.638;9.876;2023-04-06T04:10:25;101725.06;;;3.13;64.25
56400;BME280;42298;53.638;9.876;2023-04-06T04:12:52;101696.09;;;2.96;64.78
56400;BME280;42298;53.638;9.876;2023-04-06T04:15:17;101731.81;;;3.11;65.13
56400;BME280;42298;53.638;9.876;2023-04-06T04:17:43;101717.38;;;2.99;64.76
56400;BME280;42298;53.638;9.876;2023-04-06T04:20:12;101739.84;;;3.06;65.18
56400;BME280;42298;53.638;9.876;2023-04-06T04:22:40;101716.44;;;2.93;65.17
56400;BME280;42298;53.638;9.876;2023-04-06T04:25:06;101749.09;;;3.05;63.48
56400;BME280;42298;53.638;9.876;2023-04-06T04:27:31;101739.16;;;2.99;61.92
56400;BME280;42298;53.638;9.876;2023-04-06T04:29:57;101743.28;;;2.90;61.97
56400;BME280;42298;53.638;9.876;2023-04-06T04:32:23;101737.25;;;2.88;63.55
56400;BME280;42298;53.638;9.876;2023-04-06T04:34:52;101742.34;;;2.84;62.42
56400;BME280;42298;53.638;9.876;2023-04-06T04:37:18;101747.63;;;2.79;61.43
56400;BME280;42298;53.638;9.876;2023-04-06T04:39:44;101743.50;;;2.77;63.85
56400;BME280;42298;53.638;9.876;2023-04-06T04:42:09;101750.84;;;2.76;62.76
56400;BME280;42298;53.638;9.876;2023-04-06T04:44:35;101753.19;;;2.73;62.38
56400;BME280;42298;53.638;9.876;2023-04-06T04:47:00;101746.22;;;2.77;62.45
56400;BME280;42298;53.638;9.876;2023-04-06T04:49:26;101739.56;;;2.73;63.14
56400;BME280;42298;53.638;9.876;2023-04-06T04:51:51;101743.28;;;2.78;63.36
56400;BME280;42298;53.638;9.876;2023-04-06T04:54:17;101754.50;;;2.82;63.04
56400;BME280;42298;53.638;9.876;2023-04-06T04:56:43;101749.06;;;2.82;64.30
56400;BME280;42298;53.638;9.876;2023-04-06T04:59:09;101740.91;;;2.82;64.98
56400;BME280;42298;53.638;9.876;2023-04-06T05:01:36;101746.84;;;2.90;65.08
56400;BME280;42298;53.638;9.876;2023-04-06T05:04:02;101754.28;;;2.95;63.49
56400;BME280;42298;53.638;9.876;2023-04-06T05:06:28;101753.47;;;2.94;62.58
56400;BME280;42298;53.638;9.876;2023-04-06T05:08:53;101747.41;;;2.92;62.17
56400;BME280;42298;53.638;9.876;2023-04-06T05:11:18;101725.53;;;2.99;64.00
56400;BME280;42298;53.638;9.876;2023-04-06T05:13:44;101722.97;;;3.04;64.03
56400;BME280;42298;53.638;9.876;2023-04-06T05:16:09;101738.19;;;3.16;62.82
56400;BME280;42298;53.638;9.876;2023-04-06T05:18:35;101716.66;;;3.15;64.16
56400;BME280;42298;53.638;9.876;2023-04-06T05:21:01;101735.09;;;3.47;64.14
56400;BME280;42298;53.638;9.876;2023-04-06T05:23:27;101743.31;;;3.87;63.92
56400;BME280;42298;53.638;9.876;2023-04-06T05:25:53;101728.25;;;3.96;62.58
56400;BME280;42298;53.638;9.876;2023-04-06T05:28:18;101742.72;;;4.13;62.99
56400;BME280;42298;53.638;9.876;2023-04-06T05:30:44;101736.41;;;4.24;64.10
56400;BME280;42298;53.638;9.876;2023-04-06T05:33:11;101725.50;;;4.24;64.17
56400;BME280;42298;53.638;9.876;2023-04-06T05:35:36;101742.69;;;4.53;63.32
56400;BME280;42298;53.638;9.876;2023-04-06T05:38:02;101727.47;;;4.73;62.97
56400;BME280;42298;53.638;9.876;2023-04-06T05:40:27;101729.16;;;5.07;63.37
56400;BME280;42298;53.638;9.876;2023-04-06T05:42:54;101740.97;;;5.51;62.40
56400;BME280;42298;53.638;9.876;2023-04-06T05:45:20;101743.38;;;5.85;61.05
56400;BME280;42298;53.638;9.876;2023-04-06T05:47:46;101743.81;;;6.21;60.77
56400;BME280;42298;53.638;9.876;2023-04-06T05:50:15;101747.28;;;6.64;59.70
56400;BME280;42298;53.638;9.876;2023-04-06T05:52:42;101753.84;;;6.95;58.85
56400;BME280;42298;53.638;9.876;2023-04-06T05:55:09;101747.50;;;7.26;58.03
56400;BME280;42298;53.638;9.876;2023-04-06T05:57:35;101728.16;;;7.42;57.16
56400;BME280;42298;53.638;9.876;2023-04-06T06:00:01;101741.00;;;7.83;57.11
56400;BME280;42298;53.638;9.876;2023-04-06T06:02:30;101742.34;;;8.48;55.15
56400;BME280;42298;53.638;9.876;2023-04-06T06:04:55;101744.63;;;8.86;54.25
56400;BME280;42298;53.638;9.876;2023-04-06T06:07:21;101742.09;;;9.29;53.03
56400;BME280;42298;53.638;9.876;2023-04-06T06:09:46;101744.00;;;9.59;51.37
56400;BME280;42298;53.638;9.876;2023-04-06T06:12:13;101720.38;;;9.38;51.05
56400;BME280;42298;53.638;9.876;2023-04-06T06:14:38;101742.63;;;9.41;51.69
56400;BME280;42298;53.638;9.876;2023-04-06T06:17:03;101741.28;;;9.24;51.74
56400;BME280;42298;53.638;9.876;2023-04-06T06:19:29;101728.91;;;9.26;51.63
56400;BME280;42298;53.638;9.876;2023-04-06T06:21:57;101726.44;;;9.35;51.82
56400;BME280;42298;53.638;9.876;2023-04-06T06:24:25;101740.66;;;9.72;50.47
56400;BME280;42298;53.638;9.876;2023-04-06T06:26:50;101736.41;;;10.15;49.36
56400;BME280;42298;53.638;9.876;2023-04-06T06:29:16;101717.50;;;10.42;50.07
56400;BME280;42298;53.638;9.876;2023-04-06T06:31:41;101741.63;;;10.98;47.77
56400;BME280;42298;53.638;9.876;2023-04-06T06:34:07;101749.41;;;11.48;47.60
56400;BME280;42298;53.638;9.876;2023-04-06T06:36:32;101745.56;;;12.02;46.34
56400;BME280;42298;53.638;9.876;2023-04-06T06:38:58;101731.09;;;12.28;45.37
56400;BME280;42298;53.638;9.876;2023-04-06T06:41:25;101747.75;;;12.60;44.43
56400;BME280;42298;53.638;9.876;2023-04-06T06:43:52;101736.34;;;12.85;44.55
56400;BME280;42298;53.638;9.876;2023-04-06T06:46:17;101743.69;;;13.27;43.30
56400;BME280;42298;53.638;9.876;2023-04-06T06:48:43;101741.38;;;13.48;41.77
56400;BME280;42298;53.638;9.876;2023-04-06T06:51:08;101719.69;;;13.22;42.47
56400;BME280;42298;53.638;9.876;2023-04-06T06:53:34;101745.44;;;13.23;41.91
56400;BME280;42298;53.638;9.876;2023-04-06T06:56:01;101746.81;;;13.20;41.74
56400;BME280;42298;53.638;9.876;2023-04-06T06:58:27;101748.72;;;13.38;41.54
56400;BME280;42298;53.638;9.876;2023-04-06T07:00:59;101724.56;;;13.58;41.52
56400;BME280;42298;53.638;9.876;2023-04-06T07:03:25;101738.72;;;13.70;40.63
56400;BME280;42298;53.638;9.876;2023-04-06T07:05:50;101746.41;;;13.59;40.59
56400;BME280;42298;53.638;9.876;2023-04-06T07:08:20;101747.16;;;13.78;39.19
56400;BME280;42298;53.638;9.876;2023-04-06T07:10:45;101748.38;;;13.59;39.06
56400;BME280;42298;53.638;9.876;2023-04-06T07:13:11;101739.66;;;13.79;40.37
56400;BME280;42298;53.638;9.876;2023-04-06T07:15:38;101733.09;;;13.88;39.59
56400;BME280;42298;53.638;9.876;2023-04-06T07:18:04;101737.09;;;14.09;39.10
56400;BME280;42298;53.638;9.876;2023-04-06T07:20:29;101743.97;;;14.12;38.10
56400;BME280;42298;53.638;9.876;2023-04-06T07:22:55;101713.50;;;13.85;37.27
56400;BME280;42298;53.638;9.876;2023-04-06T07:25:20;101737.50;;;14.30;37.42
56400;BME280;42298;53.638;9.876;2023-04-06T07:27:46;101720.31;;;14.41;37.04
56400;BME280;42298;53.638;9.876;2023-04-06T07:30:11;101722.91;;;14.51;36.80
56400;BME280;42298;53.638;9.876;2023-04-06T07:32:38;101732.72;;;14.57;36.76
56400;BME280;42298;53.638;9.876;2023-04-06T07:35:04;101730.28;;;14.78;36.86
56400;BME280;42298;53.638;9.876;2023-04-06T07:37:32;101738.50;;;15.05;34.76
56400;BME280;42298;53.638;9.876;2023-04-06T07:40:00;101720.34;;;14.77;35.27
56400;BME280;42298;53.638;9.876;2023-04-06T07:42:27;101733.28;;;14.81;35.79
56400;BME280;42298;53.638;9.876;2023-04-06T07:44:52;101733.13;;;14.86;35.16
56400;BME280;42298;53.638;9.876;2023-04-06T07:47:17;101720.72;;;14.84;34.20
56400;BME280;42298;53.638;9.876;2023-04-06T07:49:44;101730.03;;;14.66;35.35
56400;BME280;42298;53.638;9.876;2023-04-06T07:52:12;101695.97;;;14.52;34.34
56400;BME280;42298;53.638;9.876;2023-04-06T07:54:37;101733.84;;;14.92;34.38
56400;BME280;42298;53.638;9.876;2023-04-06T07:57:03;101712.34;;;14.97;34.44
56400;BME280;42298;53.638;9.876;2023-04-06T07:59:28;101734.91;;;15.04;33.26
56400;BME280;42298;53.638;9.876;2023-04-06T08:01:57;101704.91;;;14.84;33.77
56400;BME280;42298;53.638;9.876;2023-04-06T08:04:24;101705.44;;;14.51;33.13
56400;BME280;42298;53.638;9.876;2023-04-06T08:06:52;101715.50;;;14.47;33.16
56400;BME280;42298;53.638;9.876;2023-04-06T08:09:17;101700.63;;;14.78;34.20
56400;BME280;42298;53.638;9.876;2023-04-06T08:11:45;101727.72;;;14.81;33.72
56400;BME280;42298;53.638;9.876;2023-04-06T08:14:14;101675.31;;;14.58;33.34
56400;BME280;42298;53.638;9.876;2023-04-06T08:16:40;101724.13;;;15.03;33.08
56400;BME280;42298;53.638;9.876;2023-04-06T08:19:05;101698.34;;;14.80;32.19
56400;BME280;42298;53.638;9.876;2023-04-06T08:21:37;101697.22;;;14.81;32.17
56400;BME280;42298;53.638;9.876;2023-04-06T08:24:03;101672.06;;;14.56;32.05
56400;BME280;42298;53.638;9.876;2023-04-06T08:26:28;101667.44;;;14.29;31.64
56400;BME280;42298;53.638;9.876;2023-04-06T08:28:55;101690.84;;;14.59;32.69
56400;BME280;42298;53.638;9.876;2023-04-06T08:31:20;101701.63;;;14.82;31.76
56400;BME280;42298;53.638;9.876;2023-04-06T08:34:08;101690.38;;;14.65;32.00
56400;BME280;42298;53.638;9.876;2023-04-06T08:36:34;101715.53;;;14.91;31.27
56400;BME280;42298;53.638;9.876;2023-04-06T08:39:02;101711.75;;;15.09;31.24
56400;BME280;42298;53.638;9.876;2023-04-06T08:41:28;101683.63;;;15.24;31.58
56400;BME280;42298;53.638;9.876;2023-04-06T08:46:23;101705.53;;;15.56;30.76
56400;BME280;42298;53.638;9.876;2023-04-06T08:49:00;101670.13;;;15.31;29.79
56400;BME280;42298;53.638;9.876;2023-04-06T08:51:27;101682.31;;;15.52;29.49
56400;BME280;42298;53.638;9.876;2023-04-06T08:53:57;101665.56;;;15.35;30.05
56400;BME280;42298;53.638;9.876;2023-04-06T08:56:24;101703.41;;;15.92;30.33
56400;BME280;42298;53.638;9.876;2023-04-06T08:58:55;101684.41;;;15.77;30.61
56400;BME280;42298;53.638;9.876;2023-04-06T09:01:23;101711.22;;;15.90;29.35
56400;BME280;42298;53.638;9.876;2023-04-06T09:03:57;101678.41;;;15.92;30.42
56400;BME280;42298;53.638;9.876;2023-04-06T09:06:23;101684.75;;;15.84;29.67
56400;BME280;42298;53.638;9.876;2023-04-06T09:08:49;101665.31;;;15.93;29.87
56400;BME280;42298;53.638;9.876;2023-04-06T09:11:14;101663.72;;;15.61;29.15
56400;BME280;42298;53.638;9.876;2023-04-06T09:13:47;101698.66;;;15.93;29.89
56400;BME280;42298;53.638;9.876;2023-04-06T09:16:13;101659.53;;;15.72;28.69
56400;BME280;42298;53.638;9.876;2023-04-06T09:18:38;101668.16;;;15.62;28.94
56400;BME280;42298;53.638;9.876;2023-04-06T09:21:05;101659.66;;;15.67;29.04
56400;BME280;42298;53.638;9.876;2023-04-06T09:23:33;101667.13;;;14.97;29.38
56400;BME280;42298;53.638;9.876;2023-04-06T09:26:09;101647.91;;;15.31;29.73
56400;BME280;42298;53.638;9.876;2023-04-06T09:28:48;101673.22;;;15.69;28.88
56400;BME280;42298;53.638;9.876;2023-04-06T09:31:15;101673.34;;;15.55;29.42
56400;BME280;42298;53.638;9.876;2023-04-06T09:33:42;101668.59;;;15.95;29.86
56400;BME280;42298;53.638;9.876;2023-04-06T09:36:08;101672.19;;;15.95;29.59
56400;BME280;42298;53.638;9.876;2023-04-06T09:38:39;101680.00;;;15.85;28.56
56400;BME280;42298;53.638;9.876;2023-04-06T09:41:05;101664.91;;;15.69;29.89
56400;BME280;42298;53.638;9.876;2023-04-06T09:43:30;101650.53;;;15.67;29.58
56400;BME280;42298;53.638;9.876;2023-04-06T09:45:56;101655.16;;;15.80;30.18
56400;BME280;42298;53.638;9.876;2023-04-06T09:48:24;101663.16;;;15.81;29.27
56400;BME280;42298;53.638;9.876;2023-04-06T09:50:49;101662.31;;;15.81;29.19
56400;BME280;42298;53.638;9.876;2023-04-06T09:53:19;101664.69;;;16.13;30.05
56400;BME280;42298;53.638;9.876;2023-04-06T09:55:46;101657.41;;;15.69;29.77
56400;BME280;42298;53.638;9.876;2023-04-06T09:58:19;101650.66;;;15.53;30.15
56400;BME280;42298;53.638;9.876;2023-04-06T10:01:02;101639.34;;;15.50;30.38
56400;BME280;42298;53.638;9.876;2023-04-06T10:05:57;101646.94;;;15.75;30.33
56400;BME280;42298;53.638;9.876;2023-04-06T10:08:27;101641.91;;;15.85;30.37
56400;BME280;42298;53.638;9.876;2023-04-06T10:10:56;101639.19;;;16.02;30.33
56400;BME280;42298;53.638;9.876;2023-04-06T10:13:23;101634.56;;;15.81;29.47
56400;BME280;42298;53.638;9.876;2023-04-06T10:15:51;101634.59;;;15.89;30.30
56400;BME280;42298;53.638;9.876;2023-04-06T10:18:17;101652.75;;;16.12;29.76
56400;BME280;42298;53.638;9.876;2023-04-06T10:20:53;101650.75;;;15.87;28.94
56400;BME280;42298;53.638;9.876;2023-04-06T10:23:40;101642.97;;;16.23;28.42
56400;BME280;42298;53.638;9.876;2023-04-06T10:26:13;101652.09;;;16.15;27.72
56400;BME280;42298;53.638;9.876;2023-04-06T10:28:41;101636.88;;;15.96;28.55
56400;BME280;42298;53.638;9.876;2023-04-06T10:31:07;101651.91;;;15.86;29.20
56400;BME280;42298;53.638;9.876;2023-04-06T10:33:33;101649.28;;;15.81;28.69
56400;BME280;42298;53.638;9.876;2023-04-06T10:36:12;101651.59;;;16.05;29.60
56400;BME280;42298;53.638;9.876;2023-04-06T10:38:39;101649.81;;;15.53;29.23
56400;BME280;42298;53.638;9.876;2023-04-06T10:41:09;101634.78;;;15.54;29.58
56400;BME280;42298;53.638;9.876;2023-04-06T10:43:38;101633.22;;;15.70;29.68
56400;BME280;42298;53.638;9.876;2023-04-06T10:46:05;101641.31;;;15.97;28.56
56400;BME280;42298;53.638;9.876;2023-04-06T10:48:41;101627.28;;;16.10;28.56
56400;BME280;42298;53.638;9.876;2023-04-06T10:51:12;101635.78;;;16.22;28.60
56400;BME280;42298;53.638;9.876;2023-04-06T10:53:41;101630.97;;;15.80;28.25
56400;BME280;42298;53.638;9.876;2023-04-06T10:56:10;101638.63;;;15.75;29.87
56400;BME280;42298;53.638;9.876;2023-04-06T10:58:47;101617.97;;;15.50;29.53
56400;BME280;42298;53.638;9.876;2023-04-06T11:01:14;101620.88;;;15.45;29.52
56400;BME280;42298;53.638;9.876;2023-04-06T11:03:44;101631.06;;;15.58;29.05
56400;BME280;42298;53.638;9.876;2023-04-06T11:06:10;101626.50;;;15.62;29.07
56400;BME280;42298;53.638;9.876;2023-04-06T11:08:36;101613.41;;;15.63;28.92
56400;BME280;42298;53.638;9.876;2023-04-06T11:11:08;101605.59;;;15.65;29.66
56400;BME280;42298;53.638;9.876;2023-04-06T11:13:38;101606.34;;;16.04;29.52
56400;BME280;42298;53.638;9.876;2023-04-06T11:16:04;101611.41;;;15.94;28.71
56400;BME280;42298;53.638;9.876;2023-04-06T11:18:29;101604.03;;;16.06;28.18
56400;BME280;42298;53.638;9.876;2023-04-06T11:20:55;101609.91;;;15.96;29.09
56400;BME280;42298;53.638;9.876;2023-04-06T11:23:24;101595.19;;;15.87;28.83
56400;BME280;42298;53.638;9.876;2023-04-06T11:25:54;101594.53;;;15.82;29.91
56400;BME280;42298;53.638;9.876;2023-04-06T11:28:20;101606.16;;;15.92;28.60
56400;BME280;42298;53.638;9.876;2023-04-06T11:30:46;101574.13;;;15.86;29.82
56400;BME280;42298;53.638;9.876;2023-04-06T11:33:20;101592.88;;;15.81;29.13
56400;BME280;42298;53.638;9.876;2023-04-06T11:35:46;101624.25;;;15.81;29.05
56400;BME280;42298;53.638;9.876;2023-04-06T11:38:11;101600.69;;;15.70;28.75
56400;BME280;42298;53.638;9.876;2023-04-06T11:40:37;101601.41;;;15.84;28.54
56400;BME280;42298;53.638;9.876;2023-04-06T11:43:04;101592.56;;;15.82;29.15
56400;BME280;42298;53.638;9.876;2023-04-06T11:45:39;101587.00;;;15.82;29.44
56400;BME280;42298;53.638;9.876;2023-04-06T11:48:18;101592.56;;;15.82;29.64
56400;BME280;42298;53.638;9.876;2023-04-06T11:50:46;101592.56;;;15.82;29.79
56400;BME280;42298;53.638;9.876;2023-04-06T11:53:11;101580.47;;;15.70;30.13
56400;BME280;42298;53.638;9.876;2023-04-06T11:55:38;101586.81;;;15.62;29.43
56400;BME280;42298;53.638;9.876;2023-04-06T11:58:04;101583.38;;;15.73;29.13
56400;BME280;42298;53.638;9.876;2023-04-06T12:00:29;101572.00;;;15.83;29.84
56400;BME280;42298;53.638;9.876;2023-04-06T12:02:59;101588.00;;;16.03;28.89
56400;BME280;42298;53.638;9.876;2023-04-06T12:05:25;101579.69;;;15.86;28.66
56400;BME280;42298;53.638;9.876;2023-04-06T12:07:50;101575.59;;;16.01;28.86
56400;BME280;42298;53.638;9.876;2023-04-06T12:10:16;101567.75;;;15.77;29.46
56400;BME280;42298;53.638;9.876;2023-04-06T12:12:41;101574.72;;;15.75;29.00
56400;BME280;42298;53.638;9.876;2023-04-06T12:15:07;101569.03;;;15.80;29.20
56400;BME280;42298;53.638;9.876;2023-04-06T12:17:33;101578.84;;;15.86;28.88
56400;BME280;42298;53.638;9.876;2023-04-06T12:19:58;101565.47;;;15.96;29.10
56400;BME280;42298;53.638;9.876;2023-04-06T12:22:24;101581.81;;;15.98;28.64
56400;BME280;42298;53.638;9.876;2023-04-06T12:24:49;101571.53;;;15.98;28.81
56400;BME280;42298;53.638;9.876;2023-04-06T12:27:14;101562.19;;;16.11;30.15
56400;BME280;42298;53.638;9.876;2023-04-06T12:29:40;101562.19;;;16.11;29.19
56400;BME280;42298;53.638;9.876;2023-04-06T12:32:06;101555.66;;;16.24;30.00
56400;BME280;42298;53.638;9.876;2023-04-06T12:34:31;101570.53;;;16.20;29.20
56400;BME280;42298;53.638;9.876;2023-04-06T12:36:57;101572.81;;;16.09;28.82
56400;BME280;42298;53.638;9.876;2023-04-06T12:39:23;101557.63;;;15.98;29.22
56400;BME280;42298;53.638;9.876;2023-04-06T12:41:48;101552.88;;;15.99;28.13
56400;BME280;42298;53.638;9.876;2023-04-06T12:44:14;101541.44;;;15.92;29.09
56400;BME280;42298;53.638;9.876;2023-04-06T12:46:41;101542.09;;;15.97;29.09
56400;BME280;42298;53.638;9.876;2023-04-06T12:49:08;101526.88;;;16.03;29.47
56400;BME280;42298;53.638;9.876;2023-04-06T12:51:33;101558.09;;;16.26;28.67
56400;BME280;42298;53.638;9.876;2023-04-06T12:53:59;101549.63;;;16.22;29.13
56400;BME280;42298;53.638;9.876;2023-04-06T12:56:25;101540.13;;;16.06;28.61
56400;BME280;42298;53.638;9.876;2023-04-06T12:58:51;101547.81;;;16.09;29.02
56400;BME280;42298;53.638;9.876;2023-04-06T13:01:17;101553.88;;;16.03;28.76